createdAt,value
2023-02-14T00:00:59.128Z,19.83
2023-02-14T00:03:26.516Z,20.20
2023-02-14T00:05:53.249Z,19.83
2023-02-14T00:08:19.915Z,21.57
2023-02-14T00:10:46.982Z,21.30
2023-02-14T00:13:13.832Z,20.83
2023-02-14T00:15:40.977Z,19.80
2023-02-14T00:18:07.753Z,20.73
2023-02-14T00:20:34.525Z,21.57
2023-02-14T00:23:01.258Z,21.77
2023-02-14T00:25:27.946Z,20.03
2023-02-14T00:27:56.102Z,20.37
2023-02-14T00:30:23.065Z,20.33
2023-02-14T00:32:49.815Z,22.30
2023-02-14T00:35:17.306Z,21.57
2023-02-14T00:37:46.038Z,21.20
2023-02-14T00:40:13.088Z,19.90
2023-02-14T00:42:39.938Z,18.97
2023-02-14T00:45:07.105Z,20.57
2023-02-14T00:47:35.347Z,19.97
2023-02-14T00:50:03.032Z,21.30
2023-02-14T00:52:31.332Z,19.17
2023-02-14T00:54:58.491Z,18.70
2023-02-14T00:57:25.445Z,20.10
2023-02-14T00:59:52.287Z,18.90
2023-02-14T01:02:20.782Z,21.67
2023-02-14T01:04:47.734Z,20.50
2023-02-14T01:07:14.485Z,20.27
2023-02-14T01:09:42.321Z,19.97
2023-02-14T01:12:09.033Z,18.97
2023-02-14T01:14:35.778Z,19.93
2023-02-14T01:17:02.948Z,18.90
2023-02-14T01:19:29.654Z,18.90
2023-02-14T01:21:57.092Z,19.37
2023-02-14T01:24:25.297Z,19.97
2023-02-14T01:26:52.278Z,18.93
2023-02-14T01:29:19.244Z,19.27
2023-02-14T01:31:48.459Z,18.83
2023-02-14T01:34:15.319Z,19.47
2023-02-14T01:36:42.246Z,18.50
2023-02-14T01:39:13.620Z,20.83
2023-02-14T01:41:42.955Z,19.10
2023-02-14T01:44:15.667Z,17.97
2023-02-14T01:46:44.702Z,17.90
2023-02-14T01:49:20.208Z,18.43
2023-02-14T01:51:52.884Z,20.17
2023-02-14T01:54:22.924Z,18.77
2023-02-14T01:56:54.259Z,20.07
2023-02-14T01:59:27.102Z,20.50
2023-02-14T02:01:54.394Z,19.93
2023-02-14T02:04:27.466Z,20.40
2023-02-14T02:07:03.630Z,20.97
2023-02-14T02:09:36.765Z,18.33
2023-02-14T02:12:04.630Z,19.00
2023-02-14T02:14:32.315Z,19.20
2023-02-14T02:17:35.735Z,19.43
2023-02-14T02:20:21.571Z,18.87
2023-02-14T02:23:10.019Z,19.73
2023-02-14T02:26:07.049Z,17.67
2023-02-14T02:28:42.627Z,18.03
2023-02-14T02:31:50.872Z,17.57
2023-02-14T02:34:46.877Z,18.33
2023-02-14T02:37:35.099Z,18.90
2023-02-14T02:40:17.778Z,17.97
2023-02-14T02:42:44.487Z,19.43
2023-02-14T02:45:26.256Z,19.47
2023-02-14T02:48:22.015Z,18.30
2023-02-14T02:51:16.106Z,19.27
2023-02-14T02:53:50.814Z,16.50
2023-02-14T02:56:46.284Z,17.97
2023-02-14T02:59:19.363Z,17.53
2023-02-14T03:02:14.467Z,17.40
2023-02-14T03:04:54.583Z,18.70
2023-02-14T03:07:40.416Z,17.13
2023-02-14T03:10:16.449Z,17.17
2023-02-14T03:13:10.818Z,17.77
2023-02-14T03:16:16.247Z,18.83
2023-02-14T03:19:22.413Z,18.37
2023-02-14T03:21:55.340Z,17.33
2023-02-14T03:24:39.187Z,19.53
2023-02-14T03:27:42.464Z,17.73
2023-02-14T03:30:12.533Z,16.00
2023-02-14T03:32:46.026Z,17.40
2023-02-14T03:35:26.252Z,14.53
2023-02-14T03:37:59.837Z,17.33
2023-02-14T03:40:49.493Z,18.37
2023-02-14T03:43:22.434Z,17.97
2023-02-14T03:45:56.701Z,18.23
2023-02-14T03:48:27.094Z,17.10
2023-02-14T03:50:55.612Z,18.17
2023-02-14T03:53:26.557Z,16.97
2023-02-14T03:55:58.512Z,17.60
2023-02-14T03:58:34.660Z,18.47
2023-02-14T04:01:11.120Z,16.50
2023-02-14T04:03:40.922Z,16.70
2023-02-14T04:06:07.865Z,17.30
2023-02-14T04:08:34.688Z,16.83
2023-02-14T04:11:03.150Z,16.47
2023-02-14T04:13:29.992Z,17.97
2023-02-14T04:15:56.915Z,17.80
2023-02-14T04:18:42.362Z,15.83
2023-02-14T04:21:09.093Z,16.30
2023-02-14T04:23:36.172Z,17.47
2023-02-14T04:26:04.484Z,18.57
2023-02-14T04:28:32.144Z,18.20
2023-02-14T04:31:04.004Z,16.90
2023-02-14T04:33:31.512Z,17.27
2023-02-14T04:35:59.341Z,15.90
2023-02-14T04:38:27.036Z,16.50
2023-02-14T04:40:53.778Z,15.80
2023-02-14T04:43:20.976Z,17.03
2023-02-14T04:45:48.060Z,16.37
2023-02-14T04:48:15.063Z,16.00
2023-02-14T04:50:42.058Z,15.87
2023-02-14T04:53:08.849Z,16.83
2023-02-14T04:55:36.081Z,15.27
2023-02-14T04:58:03.118Z,15.53
2023-02-14T05:00:29.835Z,16.33
2023-02-14T05:02:56.596Z,16.00
2023-02-14T05:05:23.329Z,16.33
2023-02-14T05:07:50.126Z,16.47
2023-02-14T05:10:17.625Z,16.47
2023-02-14T05:12:44.572Z,17.97
2023-02-14T05:15:11.405Z,17.80
2023-02-14T05:17:38.308Z,16.57
2023-02-14T05:20:06.820Z,16.73
2023-02-14T05:22:33.688Z,17.37
2023-02-14T05:25:00.476Z,17.00
2023-02-14T05:27:27.375Z,15.97
2023-02-14T05:29:54.210Z,16.07
2023-02-14T05:32:21.453Z,16.67
2023-02-14T05:34:48.229Z,15.70
2023-02-14T05:37:14.944Z,14.47
2023-02-14T05:39:41.670Z,15.37
2023-02-14T05:44:34.064Z,14.83
2023-02-14T05:47:00.793Z,14.97
2023-02-14T05:49:27.693Z,15.10
2023-02-14T05:51:54.653Z,15.13
2023-02-14T05:54:22.067Z,16.10
2023-02-14T05:56:49.077Z,16.30
2023-02-14T05:59:15.812Z,15.03
2023-02-14T06:01:42.690Z,15.67
2023-02-14T06:04:09.503Z,16.50
2023-02-14T06:06:36.907Z,15.37
2023-02-14T06:09:04.039Z,14.87
2023-02-14T06:11:30.753Z,14.73
2023-02-14T06:13:58.373Z,13.83
2023-02-14T06:16:25.180Z,14.20
2023-02-14T06:18:52.179Z,14.17
2023-02-14T06:21:19.386Z,15.07
2023-02-14T06:23:46.160Z,15.50
2023-02-14T06:26:13.141Z,14.43
2023-02-14T06:28:40.326Z,14.50
2023-02-14T06:31:07.261Z,13.60
2023-02-14T06:33:35.208Z,15.33
2023-02-14T06:36:02.584Z,16.60
2023-02-14T06:38:30.060Z,15.40
2023-02-14T06:41:03.662Z,17.23
2023-02-14T06:43:30.510Z,16.40
2023-02-14T06:45:57.389Z,16.23
2023-02-14T06:48:24.117Z,16.53
2023-02-14T06:50:52.274Z,17.17
2023-02-14T06:53:20.181Z,17.70
2023-02-14T06:55:47.276Z,19.53
2023-02-14T06:58:14.781Z,17.43
2023-02-14T07:00:41.687Z,18.33
2023-02-14T07:03:08.884Z,17.80
2023-02-14T07:05:37.332Z,16.47
2023-02-14T07:08:04.506Z,16.67
2023-02-14T07:10:31.321Z,16.53
2023-02-14T07:12:58.266Z,16.60
2023-02-14T07:15:25.243Z,15.47
2023-02-14T07:17:52.537Z,15.63
2023-02-14T07:20:19.984Z,17.20
2023-02-14T07:22:46.754Z,16.00
2023-02-14T07:25:13.913Z,16.23
2023-02-14T07:27:40.890Z,16.97
2023-02-14T07:30:08.930Z,16.50
2023-02-14T07:32:37.584Z,17.37
2023-02-14T07:35:05.149Z,14.57
2023-02-14T07:37:33.096Z,16.50
2023-02-14T07:40:00.416Z,16.23
2023-02-14T07:42:27.224Z,16.87
2023-02-14T07:44:54.208Z,17.20
2023-02-14T07:47:21.089Z,17.90
2023-02-14T07:49:48.273Z,18.90
2023-02-14T07:52:15.583Z,16.57
2023-02-14T07:54:42.344Z,16.07
2023-02-14T07:57:09.465Z,18.17
2023-02-14T07:59:36.537Z,21.03
2023-02-14T08:02:03.711Z,19.77
2023-02-14T08:04:33.590Z,17.87
2023-02-14T08:07:01.139Z,17.03
2023-02-14T08:09:28.002Z,13.80
2023-02-14T08:12:15.200Z,13.50
2023-02-14T08:14:43.136Z,13.17
2023-02-14T08:17:10.556Z,13.23
2023-02-14T08:19:37.885Z,15.67
2023-02-14T08:22:05.492Z,11.33
2023-02-14T08:24:32.356Z,10.77
2023-02-14T08:26:59.851Z,11.77
2023-02-14T08:29:26.590Z,11.30
2023-02-14T08:31:53.770Z,11.60
2023-02-14T08:34:21.039Z,10.57
2023-02-14T08:36:47.893Z,11.37
2023-02-14T08:39:14.809Z,12.70
2023-02-14T08:41:41.615Z,12.93
2023-02-14T08:44:08.545Z,12.07
2023-02-14T08:46:35.995Z,13.07
2023-02-14T08:49:02.802Z,11.87
2023-02-14T08:51:29.544Z,12.77
2023-02-14T08:53:56.441Z,12.00
2023-02-14T08:56:24.869Z,11.97
2023-02-14T08:58:53.343Z,10.57
2023-02-14T09:01:20.828Z,10.43
2023-02-14T09:03:47.833Z,10.77
2023-02-14T09:06:17.395Z,10.63
2023-02-14T09:08:45.727Z,11.60
2023-02-14T09:11:18.823Z,13.27
2023-02-14T09:13:47.551Z,10.80
2023-02-14T09:16:17.373Z,10.33
2023-02-14T09:18:45.004Z,10.90
2023-02-14T09:21:21.489Z,10.90
2023-02-14T09:23:48.197Z,10.07
2023-02-14T09:26:17.007Z,10.57
2023-02-14T09:28:44.512Z,10.53
2023-02-14T09:31:15.127Z,10.10
2023-02-14T09:33:43.015Z,10.67
2023-02-14T09:36:28.407Z,10.40
2023-02-14T09:38:55.172Z,9.33
2023-02-14T09:41:31.216Z,9.83
2023-02-14T09:44:33.446Z,10.00
2023-02-14T09:47:20.551Z,9.30
2023-02-14T09:49:49.040Z,9.43
2023-02-14T09:52:18.564Z,9.07
2023-02-14T09:54:51.625Z,9.43
2023-02-14T09:57:28.984Z,10.47
2023-02-14T10:00:33.403Z,10.50
2023-02-14T10:03:32.852Z,10.20
2023-02-14T10:06:45.606Z,11.27
2023-02-14T10:09:37.961Z,10.20
2023-02-14T10:12:08.236Z,9.40
2023-02-14T10:14:40.857Z,10.30
2023-02-14T10:17:14.629Z,9.83
2023-02-14T10:19:48.342Z,9.10
2023-02-14T10:22:19.048Z,10.50
2023-02-14T10:24:52.377Z,10.43
2023-02-14T10:27:39.546Z,10.50
2023-02-14T10:30:24.943Z,10.03
2023-02-14T10:32:51.857Z,10.80
2023-02-14T10:35:24.847Z,10.43
2023-02-14T10:38:10.156Z,10.10
2023-02-14T10:40:36.983Z,10.13
2023-02-14T10:43:15.705Z,9.47
2023-02-14T10:45:58.216Z,9.13
2023-02-14T10:48:39.732Z,9.70
2023-02-14T10:51:19.300Z,9.40
2023-02-14T10:54:00.685Z,9.63
2023-02-14T10:56:35.934Z,9.20
2023-02-14T10:59:16.345Z,9.63
2023-02-14T11:01:43.932Z,9.15
2023-02-14T11:04:13.173Z,9.80
2023-02-14T11:06:39.907Z,9.38
2023-02-14T11:09:06.929Z,8.43
2023-02-14T11:11:43.475Z,8.85
2023-02-14T11:14:22.717Z,7.72
2023-02-14T11:16:53.479Z,8.32
2023-02-14T11:19:38.865Z,8.30
2023-02-14T11:22:06.172Z,9.00
2023-02-14T11:24:34.948Z,8.60
2023-02-14T11:27:10.064Z,8.45
2023-02-14T11:29:52.360Z,8.32
2023-02-14T11:32:24.114Z,8.38
2023-02-14T11:35:01.725Z,8.60
2023-02-14T11:37:34.049Z,8.68
2023-02-14T11:40:02.883Z,8.27
2023-02-14T11:42:45.326Z,8.30
2023-02-14T11:45:31.062Z,8.00
2023-02-14T11:48:42.227Z,8.30
2023-02-14T11:51:13.996Z,8.10
2023-02-14T11:53:54.056Z,8.82
2023-02-14T11:56:22.511Z,8.35
2023-02-14T11:59:03.820Z,8.40
2023-02-14T12:01:35.489Z,9.00
2023-02-14T12:04:06.482Z,8.77
2023-02-14T12:06:36.545Z,8.52
2023-02-14T12:09:32.041Z,7.80
2023-02-14T12:12:04.690Z,8.05
2023-02-14T12:14:35.393Z,8.45
2023-02-14T12:17:11.579Z,7.75
2023-02-14T12:19:53.579Z,6.82
2023-02-14T12:22:34.968Z,6.45
2023-02-14T12:25:16.594Z,7.10
2023-02-14T12:28:11.941Z,6.88
2023-02-14T12:30:39.214Z,6.18
2023-02-14T12:33:20.866Z,5.68
2023-02-14T12:35:56.921Z,5.35
2023-02-14T12:38:33.307Z,6.57
2023-02-14T12:41:19.509Z,4.68
2023-02-14T12:43:50.728Z,4.43
2023-02-14T12:46:20.507Z,4.97
2023-02-14T12:49:01.862Z,5.90
2023-02-14T12:51:47.323Z,4.95
2023-02-14T12:54:44.361Z,4.75
2023-02-14T12:57:11.063Z,5.03
2023-02-14T13:00:17.917Z,5.57
2023-02-14T13:03:05.936Z,3.80
2023-02-14T13:05:50.973Z,5.07
2023-02-14T13:09:02.895Z,5.30
2023-02-14T13:11:41.799Z,5.78
2023-02-14T13:14:37.538Z,4.90
2023-02-14T13:17:23.045Z,4.72
2023-02-14T13:20:20.332Z,5.97
2023-02-14T13:22:48.990Z,5.45
2023-02-14T13:25:33.831Z,6.13
2023-02-14T13:28:05.750Z,6.53
2023-02-14T13:30:37.204Z,5.82
2023-02-14T13:33:24.793Z,5.97
2023-02-14T13:35:56.199Z,6.05
2023-02-14T13:38:24.896Z,6.50
2023-02-14T13:40:53.467Z,6.50
2023-02-14T13:44:01.666Z,6.70
2023-02-14T13:46:34.336Z,5.90
2023-02-14T13:49:07.652Z,6.30
2023-02-14T13:51:46.346Z,6.32
2023-02-14T13:54:28.203Z,5.97
2023-02-14T13:56:55.244Z,5.97
2023-02-14T13:59:35.604Z,6.47
2023-02-14T14:02:30.065Z,6.10
2023-02-14T14:04:57.196Z,7.05
2023-02-14T14:07:30.219Z,6.28
2023-02-14T14:09:59.317Z,6.63
2023-02-14T14:12:29.181Z,7.68
2023-02-14T14:15:05.402Z,7.07
2023-02-14T14:17:45.964Z,6.93
2023-02-14T14:20:15.778Z,7.28
2023-02-14T14:23:00.266Z,7.72
2023-02-14T14:25:38.890Z,7.25
2023-02-14T14:28:18.588Z,8.32
2023-02-14T14:30:45.922Z,9.23
2023-02-14T14:33:15.120Z,8.88
2023-02-14T14:35:53.912Z,8.02
2023-02-14T14:38:21.010Z,8.60
2023-02-14T14:40:49.602Z,8.73
2023-02-14T14:43:27.230Z,8.07
2023-02-14T14:45:56.621Z,9.10
2023-02-14T14:48:32.636Z,9.00
2023-02-14T14:51:00.154Z,8.40
2023-02-14T14:53:42.050Z,8.53
2023-02-14T14:56:18.207Z,8.20
2023-02-14T14:58:45.146Z,8.37
2023-02-14T15:01:21.383Z,8.57
2023-02-14T15:03:48.307Z,8.47
2023-02-14T15:06:19.169Z,8.20
2023-02-14T15:08:47.937Z,7.97
2023-02-14T15:11:46.205Z,10.37
2023-02-14T15:14:22.015Z,12.00
2023-02-14T15:16:51.963Z,11.17
2023-02-14T15:19:26.003Z,13.17
2023-02-14T15:21:53.508Z,31.10
2023-02-14T15:24:20.463Z,21.97
2023-02-14T15:26:49.240Z,15.63
2023-02-14T15:29:24.876Z,15.13
2023-02-14T15:31:52.763Z,16.70
2023-02-14T15:34:24.807Z,13.93
2023-02-14T15:36:59.126Z,14.77
2023-02-14T15:39:34.129Z,13.97
2023-02-14T15:42:00.927Z,14.17
2023-02-14T15:44:28.723Z,14.33
2023-02-14T15:47:05.709Z,12.83
2023-02-14T15:49:41.495Z,12.27
2023-02-14T15:52:14.326Z,14.40
2023-02-14T15:54:47.455Z,15.07
2023-02-14T15:57:26.453Z,13.77
2023-02-14T15:59:54.091Z,15.40
2023-02-14T16:02:27.794Z,15.90
2023-02-14T16:05:02.244Z,18.77
2023-02-14T16:07:29.813Z,18.87
2023-02-14T16:10:23.236Z,17.17
2023-02-14T16:12:57.688Z,19.73
2023-02-14T16:15:27.996Z,14.50
2023-02-14T16:17:55.313Z,14.03
2023-02-14T16:20:39.169Z,13.63
2023-02-14T16:23:28.516Z,13.97
2023-02-14T16:25:58.849Z,13.80
2023-02-14T16:28:29.988Z,13.37
2023-02-14T16:31:00.088Z,13.30
2023-02-14T16:33:30.446Z,14.07
2023-02-14T16:36:06.498Z,14.97
2023-02-14T16:38:41.895Z,14.27
2023-02-14T16:41:18.383Z,14.13
2023-02-14T16:43:45.599Z,14.13
2023-02-14T16:46:21.371Z,12.87
2023-02-14T16:48:52.671Z,12.13
2023-02-14T16:51:22.409Z,12.33
2023-02-14T16:53:50.958Z,12.93
2023-02-14T16:56:23.463Z,13.10
2023-02-14T16:58:50.472Z,13.93
2023-02-14T17:01:17.358Z,13.40
2023-02-14T17:03:44.699Z,13.70
2023-02-14T17:06:15.850Z,13.13
2023-02-14T17:08:43.947Z,13.90
2023-02-14T17:11:11.166Z,13.57
2023-02-14T17:13:42.542Z,12.80
2023-02-14T17:16:12.460Z,13.67
2023-02-14T17:18:47.680Z,14.10
2023-02-14T17:21:15.957Z,13.47
2023-02-14T17:23:43.522Z,13.17
2023-02-14T17:26:11.274Z,14.10
2023-02-14T17:28:38.211Z,13.93
2023-02-14T17:31:05.515Z,11.63
2023-02-14T17:33:33.402Z,11.60
2023-02-14T17:36:12.239Z,11.20
2023-02-14T17:38:40.319Z,11.83
2023-02-14T17:41:22.374Z,11.87
2023-02-14T17:43:50.322Z,11.77
2023-02-14T17:46:20.855Z,11.80
2023-02-14T17:48:49.046Z,12.03
2023-02-14T17:51:18.208Z,12.33
2023-02-14T17:53:45.036Z,13.13
2023-02-14T17:56:22.138Z,12.60
2023-02-14T17:58:51.635Z,14.00
2023-02-14T18:01:22.703Z,13.73
2023-02-14T18:03:52.018Z,13.50
2023-02-14T18:06:22.242Z,12.90
2023-02-14T18:08:53.089Z,14.33
2023-02-14T18:11:21.814Z,13.90
2023-02-14T18:13:49.939Z,14.47
2023-02-14T18:16:19.039Z,14.20
2023-02-14T18:18:46.334Z,14.33
2023-02-14T18:21:16.409Z,15.07
2023-02-14T18:23:44.075Z,14.90
2023-02-14T18:26:13.059Z,14.80
2023-02-14T18:28:39.809Z,16.03
2023-02-14T18:31:10.322Z,15.60
2023-02-14T18:33:38.345Z,15.03
2023-02-14T18:36:07.885Z,15.33
2023-02-14T18:38:35.343Z,14.93
2023-02-14T18:41:04.100Z,12.97
2023-02-14T18:43:31.178Z,15.20
2023-02-14T18:46:14.418Z,14.00
2023-02-14T18:48:41.757Z,13.60
2023-02-14T18:51:17.240Z,14.67
2023-02-14T18:53:45.424Z,13.97
2023-02-14T18:56:17.626Z,13.27
2023-02-14T18:58:47.614Z,14.17
2023-02-14T19:01:21.049Z,12.67
2023-02-14T19:03:51.691Z,12.63
2023-02-14T19:06:19.227Z,13.53
2023-02-14T19:08:46.414Z,13.97
2023-02-14T19:14:00.001Z,12.63
2023-02-14T19:16:33.166Z,14.03
2023-02-14T19:19:02.501Z,13.40
2023-02-14T19:21:33.961Z,14.60
2023-02-14T19:24:02.492Z,13.13
2023-02-14T19:26:37.282Z,13.67
2023-02-14T19:29:07.441Z,14.37
2023-02-14T19:31:37.577Z,14.77
2023-02-14T19:34:13.720Z,13.97
2023-02-14T19:36:40.449Z,12.63
2023-02-14T19:39:07.785Z,12.27
2023-02-14T19:41:34.868Z,12.47
2023-02-14T19:44:05.459Z,12.00
2023-02-14T19:46:33.243Z,11.47
2023-02-14T19:49:01.342Z,12.60
2023-02-14T19:51:32.707Z,12.23
2023-02-14T19:54:01.349Z,12.53
2023-02-14T19:56:31.370Z,13.27
2023-02-14T19:58:59.100Z,12.47
2023-02-14T20:01:33.326Z,12.73
2023-02-14T20:04:00.801Z,13.00
2023-02-14T20:06:31.122Z,11.37
2023-02-14T20:08:58.361Z,13.47
2023-02-14T20:11:35.024Z,12.77
2023-02-14T20:14:03.685Z,14.90
2023-02-14T20:16:33.692Z,13.53
2023-02-14T20:19:09.167Z,11.73
2023-02-14T20:21:36.204Z,10.43
2023-02-14T20:24:04.818Z,8.73
2023-02-14T20:26:33.960Z,8.73
2023-02-14T20:29:06.023Z,8.57
2023-02-14T20:31:34.589Z,8.63
2023-02-14T20:34:01.635Z,7.80
2023-02-14T20:36:31.317Z,8.63
2023-02-14T20:39:03.247Z,10.60
2023-02-14T20:41:34.593Z,11.60
2023-02-14T20:44:04.629Z,12.10
2023-02-14T20:46:31.838Z,12.17
2023-02-14T20:49:02.304Z,12.70
2023-02-14T20:51:29.578Z,12.33
2023-02-14T20:53:56.396Z,12.60
2023-02-14T20:56:24.353Z,12.53
2023-02-14T20:58:51.446Z,12.43
2023-02-14T21:01:21.627Z,13.77
2023-02-14T21:03:53.401Z,13.07
2023-02-14T21:06:26.567Z,13.40
2023-02-14T21:08:54.452Z,14.83
2023-02-14T21:11:25.101Z,13.33
2023-02-14T21:14:00.149Z,14.97
2023-02-14T21:16:29.901Z,13.90
2023-02-14T21:19:01.872Z,13.77
2023-02-14T21:21:36.043Z,14.63
2023-02-14T21:24:14.872Z,14.03
2023-02-14T21:26:43.565Z,13.67
2023-02-14T21:29:10.761Z,15.37
2023-02-14T21:31:39.181Z,15.40
2023-02-14T21:34:06.372Z,15.70
2023-02-14T21:36:36.016Z,14.90
2023-02-14T21:39:05.165Z,14.63
2023-02-14T21:41:32.428Z,17.37
2023-02-14T21:44:01.150Z,15.90
2023-02-14T21:46:31.703Z,16.50
2023-02-14T21:49:19.746Z,17.97
2023-02-14T21:51:47.426Z,20.47
2023-02-14T21:54:15.184Z,18.03
2023-02-14T21:56:42.502Z,16.90
2023-02-14T21:59:09.964Z,17.83
2023-02-14T22:01:39.565Z,19.97
2023-02-14T22:04:09.316Z,23.93
2023-02-14T22:06:37.847Z,40.63
2023-02-14T22:09:05.193Z,21.13
2023-02-14T22:11:32.393Z,20.83
2023-02-14T22:14:00.377Z,14.60
2023-02-14T22:16:27.906Z,19.90
2023-02-14T22:18:54.680Z,20.70
2023-02-14T22:21:24.269Z,15.37
2023-02-14T22:23:51.113Z,14.47
2023-02-14T22:26:25.717Z,14.33
2023-02-14T22:28:55.878Z,14.77
2023-02-14T22:31:24.341Z,15.40
2023-02-14T22:33:51.332Z,13.37
2023-02-14T22:36:18.159Z,14.57
2023-02-14T22:38:45.058Z,13.87
2023-02-14T22:41:14.669Z,14.13
2023-02-14T22:43:42.177Z,14.60
2023-02-14T22:46:11.839Z,15.10
2023-02-14T22:48:39.604Z,14.23
2023-02-14T22:51:07.799Z,15.07
2023-02-14T22:53:34.842Z,14.97
2023-02-14T22:56:23.030Z,14.93
2023-02-14T22:58:55.064Z,15.37
2023-02-14T23:01:22.954Z,14.10
2023-02-14T23:03:53.592Z,15.03
2023-02-14T23:06:20.502Z,14.90
2023-02-14T23:08:47.963Z,14.80
2023-02-14T23:11:18.548Z,15.77
2023-02-14T23:14:04.479Z,16.67
2023-02-14T23:16:50.897Z,15.73
2023-02-14T23:19:45.678Z,14.33
2023-02-14T23:22:15.932Z,13.37
2023-02-14T23:24:43.412Z,12.20
2023-02-14T23:27:10.438Z,12.63
2023-02-14T23:29:38.051Z,13.10
2023-02-14T23:32:05.743Z,12.43
2023-02-14T23:34:35.152Z,12.40
2023-02-14T23:37:02.385Z,13.73
2023-02-14T23:39:32.627Z,12.07
2023-02-14T23:41:59.804Z,12.57
2023-02-14T23:44:28.563Z,11.57
2023-02-14T23:46:57.749Z,11.63
2023-02-14T23:49:25.839Z,11.53
2023-02-14T23:51:55.140Z,11.30
2023-02-14T23:54:23.688Z,10.93
2023-02-14T23:56:52.509Z,11.43
2023-02-14T23:59:20.941Z,11.40
